sensor_id;sensor_type;location;lat;lon;timestamp;temperature;humidity
8313;DHT22;4194;43.408;24.626;2023-08-17T00:00:19;20.70;99.90
8313;DHT22;4194;43.408;24.626;2023-08-17T00:02:45;21.20;99.90
8313;DHT22;4194;43.408;24.626;2023-08-17T00:05:11;20.30;99.90
8313;DHT22;4194;43.408;24.626;2023-08-17T00:07:37;21.20;99.90
8313;DHT22;4194;43.408;24.626;2023-08-17T00:10:03;21.30;99.90
8313;DHT22;4194;43.408;24.626;2023-08-17T00:12:29;21.20;99.90
8313;DHT22;4194;43.408;24.626;2023-08-17T00:14:55;20.00;99.90
8313;DHT22;4194;43.408;24.626;2023-08-17T00:17:20;21.00;99.90
8313;DHT22;4194;43.408;24.626;2023-08-17T00:22:12;20.90;99.90
8313;DHT22;4194;43.408;24.626;2023-08-17T00:24:38;21.30;99.90
8313;DHT22;4194;43.408;24.626;2023-08-17T00:27:06;21.20;99.90
8313;DHT22;4194;43.408;24.626;2023-08-17T00:29:32;21.20;99.90
8313;DHT22;4194;43.408;24.626;2023-08-17T00:31:57;21.30;99.90
8313;DHT22;4194;43.408;24.626;2023-08-17T00:36:49;21.20;99.90
8313;DHT22;4194;43.408;24.626;2023-08-17T00:39:14;21.10;99.90
8313;DHT22;4194;43.408;24.626;2023-08-17T00:41:40;20.80;99.90
8313;DHT22;4194;43.408;24.626;2023-08-17T00:46:32;21.40;99.90
8313;DHT22;4194;43.408;24.626;2023-08-17T00:48:58;21.20;99.90
8313;DHT22;4194;43.408;24.626;2023-08-17T00:51:25;21.30;99.90
8313;DHT22;4194;43.408;24.626;2023-08-17T00:53:53;20.70;99.90
8313;DHT22;4194;43.408;24.626;2023-08-17T00:56:20;20.60;99.90
8313;DHT22;4194;43.408;24.626;2023-08-17T00:58:46;20.90;99.90
8313;DHT22;4194;43.408;24.626;2023-08-17T01:01:12;20.70;99.90
8313;DHT22;4194;43.408;24.626;2023-08-17T01:03:39;21.00;99.90
8313;DHT22;4194;43.408;24.626;2023-08-17T01:06:06;20.90;99.90
8313;DHT22;4194;43.408;24.626;2023-08-17T01:08:32;21.20;99.90
8313;DHT22;4194;43.408;24.626;2023-08-17T01:19:27;20.60;99.90
8313;DHT22;4194;43.408;24.626;2023-08-17T01:21:59;20.50;99.90
8313;DHT22;4194;43.408;24.626;2023-08-17T01:24:25;20.70;99.90
8313;DHT22;4194;43.408;24.626;2023-08-17T01:34:19;20.80;99.90
8313;DHT22;4194;43.408;24.626;2023-08-17T01:36:54;20.50;99.90
8313;DHT22;4194;43.408;24.626;2023-08-17T01:39:26;20.60;99.90
8313;DHT22;4194;43.408;24.626;2023-08-17T01:41:55;20.50;99.90
8313;DHT22;4194;43.408;24.626;2023-08-17T01:44:22;20.80;99.90
8313;DHT22;4194;43.408;24.626;2023-08-17T01:49:14;20.50;99.90
8313;DHT22;4194;43.408;24.626;2023-08-17T01:51:40;20.80;99.90
8313;DHT22;4194;43.408;24.626;2023-08-17T01:54:06;20.20;99.90
8313;DHT22;4194;43.408;24.626;2023-08-17T01:56:31;19.30;99.90
8313;DHT22;4194;43.408;24.626;2023-08-17T01:58:57;20.10;99.90
8313;DHT22;4194;43.408;24.626;2023-08-17T02:01:23;20.80;99.90
8313;DHT22;4194;43.408;24.626;2023-08-17T02:03:48;19.20;99.90
8313;DHT22;4194;43.408;24.626;2023-08-17T02:06:14;20.00;99.90
8313;DHT22;4194;43.408;24.626;2023-08-17T02:08:41;20.60;99.90
8313;DHT22;4194;43.408;24.626;2023-08-17T02:11:07;21.10;99.90
8313;DHT22;4194;43.408;24.626;2023-08-17T02:13:32;20.30;99.90
8313;DHT22;4194;43.408;24.626;2023-08-17T02:15:58;19.00;99.90
8313;DHT22;4194;43.408;24.626;2023-08-17T02:20:50;19.00;99.90
8313;DHT22;4194;43.408;24.626;2023-08-17T02:23:15;20.90;99.90
8313;DHT22;4194;43.408;24.626;2023-08-17T02:25:41;18.70;99.90
8313;DHT22;4194;43.408;24.626;2023-08-17T02:28:07;19.60;99.90
8313;DHT22;4194;43.408;24.626;2023-08-17T02:30:32;20.70;99.90
8313;DHT22;4194;43.408;24.626;2023-08-17T02:32:58;20.30;99.90
8313;DHT22;4194;43.408;24.626;2023-08-17T02:35:24;20.20;99.90
8313;DHT22;4194;43.408;24.626;2023-08-17T02:37:50;19.80;99.90
8313;DHT22;4194;43.408;24.626;2023-08-17T02:40:15;20.80;99.90
8313;DHT22;4194;43.408;24.626;2023-08-17T02:42:41;20.10;99.90
8313;DHT22;4194;43.408;24.626;2023-08-17T02:45:08;18.30;99.90
8313;DHT22;4194;43.408;24.626;2023-08-17T02:49:59;19.30;99.90
8313;DHT22;4194;43.408;24.626;2023-08-17T02:52:25;19.50;99.90
8313;DHT22;4194;43.408;24.626;2023-08-17T02:57:17;19.50;99.90
8313;DHT22;4194;43.408;24.626;2023-08-17T02:59:44;20.80;99.90
8313;DHT22;4194;43.408;24.626;2023-08-17T03:02:09;20.20;99.90
8313;DHT22;4194;43.408;24.626;2023-08-17T03:04:35;19.50;99.90
8313;DHT22;4194;43.408;24.626;2023-08-17T03:07:01;20.20;99.90
8313;DHT22;4194;43.408;24.626;2023-08-17T03:14:19;19.20;99.90
8313;DHT22;4194;43.408;24.626;2023-08-17T03:16:44;18.00;99.90
8313;DHT22;4194;43.408;24.626;2023-08-17T03:21:37;19.10;99.90
8313;DHT22;4194;43.408;24.626;2023-08-17T03:24:03;18.90;99.90
8313;DHT22;4194;43.408;24.626;2023-08-17T03:26:29;19.90;99.90
8313;DHT22;4194;43.408;24.626;2023-08-17T03:28:55;18.80;99.90
8313;DHT22;4194;43.408;24.626;2023-08-17T03:33:47;17.90;99.90
8313;DHT22;4194;43.408;24.626;2023-08-17T03:36:13;19.50;99.90
8313;DHT22;4194;43.408;24.626;2023-08-17T03:38:39;18.60;99.90
8313;DHT22;4194;43.408;24.626;2023-08-17T03:43:31;19.40;99.90
8313;DHT22;4194;43.408;24.626;2023-08-17T03:45:57;18.30;99.90
8313;DHT22;4194;43.408;24.626;2023-08-17T03:48:23;18.20;99.90
8313;DHT22;4194;43.408;24.626;2023-08-17T03:50:55;19.10;99.90
8313;DHT22;4194;43.408;24.626;2023-08-17T03:58:17;19.40;99.90
8313;DHT22;4194;43.408;24.626;2023-08-17T04:00:52;19.10;99.90
8313;DHT22;4194;43.408;24.626;2023-08-17T04:03:21;19.10;99.90
8313;DHT22;4194;43.408;24.626;2023-08-17T04:08:13;19.30;99.90
8313;DHT22;4194;43.408;24.626;2023-08-17T04:10:39;18.70;99.90
8313;DHT22;4194;43.408;24.626;2023-08-17T04:13:04;19.30;99.90
8313;DHT22;4194;43.408;24.626;2023-08-17T04:15:30;20.30;99.90
8313;DHT22;4194;43.408;24.626;2023-08-17T04:20:22;18.10;99.90
8313;DHT22;4194;43.408;24.626;2023-08-17T04:22:48;19.70;99.90
8313;DHT22;4194;43.408;24.626;2023-08-17T04:25:14;19.10;99.90
8313;DHT22;4194;43.408;24.626;2023-08-17T08:15:33;29.90;86.70
8313;DHT22;4194;43.408;24.626;2023-08-17T08:31:27;29.90;84.50
8313;DHT22;4194;43.408;24.626;2023-08-17T08:33:53;29.90;81.50
8313;DHT22;4194;43.408;24.626;2023-08-17T08:36:19;29.90;81.40
8313;DHT22;4194;43.408;24.626;2023-08-17T08:38:45;30.10;80.20
8313;DHT22;4194;43.408;24.626;2023-08-17T08:41:11;30.00;79.70
8313;DHT22;4194;43.408;24.626;2023-08-17T08:43:38;30.00;77.50
8313;DHT22;4194;43.408;24.626;2023-08-17T08:46:04;30.40;77.30
8313;DHT22;4194;43.408;24.626;2023-08-17T08:48:31;29.50;76.00
8313;DHT22;4194;43.408;24.626;2023-08-17T08:51:00;30.40;76.40
8313;DHT22;4194;43.408;24.626;2023-08-17T08:53:43;30.30;77.20
8313;DHT22;4194;43.408;24.626;2023-08-17T08:56:11;30.80;76.70
8313;DHT22;4194;43.408;24.626;2023-08-17T08:58:40;30.60;74.10
8313;DHT22;4194;43.408;24.626;2023-08-17T09:01:08;31.10;74.20
8313;DHT22;4194;43.408;24.626;2023-08-17T09:03:35;30.60;73.00
8313;DHT22;4194;43.408;24.626;2023-08-17T09:06:02;31.40;73.30
8313;DHT22;4194;43.408;24.626;2023-08-17T09:08:30;31.70;72.40
8313;DHT22;4194;43.408;24.626;2023-08-17T09:10:56;31.90;72.20
8313;DHT22;4194;43.408;24.626;2023-08-17T09:13:22;31.80;70.70
8313;DHT22;4194;43.408;24.626;2023-08-17T09:15:47;32.90;69.70
8313;DHT22;4194;43.408;24.626;2023-08-17T09:18:13;32.80;67.80
8313;DHT22;4194;43.408;24.626;2023-08-17T09:23:09;34.10;62.00
8313;DHT22;4194;43.408;24.626;2023-08-17T09:25:42;34.10;60.60
8313;DHT22;4194;43.408;24.626;2023-08-17T09:28:09;33.90;60.40
8313;DHT22;4194;43.408;24.626;2023-08-17T09:31:01;35.00;59.40
8313;DHT22;4194;43.408;24.626;2023-08-17T09:33:32;34.60;57.60
8313;DHT22;4194;43.408;24.626;2023-08-17T09:35:59;35.30;58.30
8313;DHT22;4194;43.408;24.626;2023-08-17T09:38:25;35.30;57.80
8313;DHT22;4194;43.408;24.626;2023-08-17T09:40:52;35.50;57.10
8313;DHT22;4194;43.408;24.626;2023-08-17T09:43:18;36.00;56.50
8313;DHT22;4194;43.408;24.626;2023-08-17T09:45:47;35.90;56.90
8313;DHT22;4194;43.408;24.626;2023-08-17T09:48:18;35.60;56.30
8313;DHT22;4194;43.408;24.626;2023-08-17T09:50:46;34.20;55.20
8313;DHT22;4194;43.408;24.626;2023-08-17T09:53:14;34.90;56.00
8313;DHT22;4194;43.408;24.626;2023-08-17T09:55:41;34.60;58.50
8313;DHT22;4194;43.408;24.626;2023-08-17T09:58:07;34.40;58.00
8313;DHT22;4194;43.408;24.626;2023-08-17T10:00:34;35.80;58.70
8313;DHT22;4194;43.408;24.626;2023-08-17T10:03:02;35.00;57.60
8313;DHT22;4194;43.408;24.626;2023-08-17T10:05:34;35.20;57.00
8313;DHT22;4194;43.408;24.626;2023-08-17T10:08:01;34.30;56.70
8313;DHT22;4194;43.408;24.626;2023-08-17T10:10:29;35.40;56.90
8313;DHT22;4194;43.408;24.626;2023-08-17T10:13:12;35.30;56.50
8313;DHT22;4194;43.408;24.626;2023-08-17T10:18:31;34.80;55.30
8313;DHT22;4194;43.408;24.626;2023-08-17T10:21:02;35.90;55.80
8313;DHT22;4194;43.408;24.626;2023-08-17T10:23:30;35.70;54.10
8313;DHT22;4194;43.408;24.626;2023-08-17T10:25:56;35.80;55.40
8313;DHT22;4194;43.408;24.626;2023-08-17T10:28:23;35.90;56.30
8313;DHT22;4194;43.408;24.626;2023-08-17T10:30:49;34.70;55.70
8313;DHT22;4194;43.408;24.626;2023-08-17T10:33:16;35.50;56.10
8313;DHT22;4194;43.408;24.626;2023-08-17T10:35:42;36.40;56.70
8313;DHT22;4194;43.408;24.626;2023-08-17T10:38:08;35.10;55.90
8313;DHT22;4194;43.408;24.626;2023-08-17T10:40:41;33.90;56.00
8313;DHT22;4194;43.408;24.626;2023-08-17T10:43:07;35.40;56.20
8313;DHT22;4194;43.408;24.626;2023-08-17T10:45:34;36.00;55.50
8313;DHT22;4194;43.408;24.626;2023-08-17T10:50:35;37.60;53.50
8313;DHT22;4194;43.408;24.626;2023-08-17T10:53:09;37.70;52.90
8313;DHT22;4194;43.408;24.626;2023-08-17T10:55:39;37.70;53.10
8313;DHT22;4194;43.408;24.626;2023-08-17T10:58:05;37.20;52.60
8313;DHT22;4194;43.408;24.626;2023-08-17T11:00:38;37.20;53.50
8313;DHT22;4194;43.408;24.626;2023-08-17T11:03:08;38.10;51.60
8313;DHT22;4194;43.408;24.626;2023-08-17T11:05:52;38.90;51.10
8313;DHT22;4194;43.408;24.626;2023-08-17T11:11:16;40.30;50.10
8313;DHT22;4194;43.408;24.626;2023-08-17T11:13:45;39.90;51.30
8313;DHT22;4194;43.408;24.626;2023-08-17T11:16:13;38.80;50.30
8313;DHT22;4194;43.408;24.626;2023-08-17T11:18:39;39.10;50.80
8313;DHT22;4194;43.408;24.626;2023-08-17T11:21:08;39.70;50.60
8313;DHT22;4194;43.408;24.626;2023-08-17T11:23:36;40.30;48.30
8313;DHT22;4194;43.408;24.626;2023-08-17T11:26:03;40.00;48.60
8313;DHT22;4194;43.408;24.626;2023-08-17T11:28:33;40.30;48.60
8313;DHT22;4194;43.408;24.626;2023-08-17T11:31:03;40.70;47.00
8313;DHT22;4194;43.408;24.626;2023-08-17T11:33:30;40.00;46.50
8313;DHT22;4194;43.408;24.626;2023-08-17T11:36:01;40.90;47.50
8313;DHT22;4194;43.408;24.626;2023-08-17T11:38:32;41.00;46.70
8313;DHT22;4194;43.408;24.626;2023-08-17T11:40:58;40.80;46.80
8313;DHT22;4194;43.408;24.626;2023-08-17T11:43:25;39.90;46.90
8313;DHT22;4194;43.408;24.626;2023-08-17T11:45:51;39.00;48.30
8313;DHT22;4194;43.408;24.626;2023-08-17T11:48:20;38.20;49.60
8313;DHT22;4194;43.408;24.626;2023-08-17T11:50:46;37.50;51.50
8313;DHT22;4194;43.408;24.626;2023-08-17T11:53:11;37.70;50.60
8313;DHT22;4194;43.408;24.626;2023-08-17T11:55:37;38.40;49.90
8313;DHT22;4194;43.408;24.626;2023-08-17T11:58:03;39.00;50.70
8313;DHT22;4194;43.408;24.626;2023-08-17T12:00:41;39.40;48.00
8313;DHT22;4194;43.408;24.626;2023-08-17T12:05:33;39.90;48.60
8313;DHT22;4194;43.408;24.626;2023-08-17T12:08:00;38.90;48.40
8313;DHT22;4194;43.408;24.626;2023-08-17T12:10:29;38.20;47.70
8313;DHT22;4194;43.408;24.626;2023-08-17T12:13:00;38.70;48.90
8313;DHT22;4194;43.408;24.626;2023-08-17T12:15:31;38.90;48.30
8313;DHT22;4194;43.408;24.626;2023-08-17T12:17:59;39.40;48.50
8313;DHT22;4194;43.408;24.626;2023-08-17T12:22:52;38.30;49.50
8313;DHT22;4194;43.408;24.626;2023-08-17T12:25:21;38.40;49.10
8313;DHT22;4194;43.408;24.626;2023-08-17T12:27:48;39.40;47.50
8313;DHT22;4194;43.408;24.626;2023-08-17T12:32:52;40.70;44.50
8313;DHT22;4194;43.408;24.626;2023-08-17T12:37:47;42.40;43.40
8313;DHT22;4194;43.408;24.626;2023-08-17T12:40:13;43.10;43.90
8313;DHT22;4194;43.408;24.626;2023-08-17T12:42:38;44.00;42.70
8313;DHT22;4194;43.408;24.626;2023-08-17T12:45:04;45.30;40.50
8313;DHT22;4194;43.408;24.626;2023-08-17T12:47:30;45.30;40.50
8313;DHT22;4194;43.408;24.626;2023-08-17T12:49:56;46.20;40.70
8313;DHT22;4194;43.408;24.626;2023-08-17T12:52:22;44.50;41.00
8313;DHT22;4194;43.408;24.626;2023-08-17T12:54:48;43.90;40.10
8313;DHT22;4194;43.408;24.626;2023-08-17T12:57:13;41.10;43.70
8313;DHT22;4194;43.408;24.626;2023-08-17T12:59:39;40.50;44.30
8313;DHT22;4194;43.408;24.626;2023-08-17T13:02:05;41.10;43.50
8313;DHT22;4194;43.408;24.626;2023-08-17T13:04:31;43.20;43.60
8313;DHT22;4194;43.408;24.626;2023-08-17T13:11:48;42.70;44.70
8313;DHT22;4194;43.408;24.626;2023-08-17T13:14:14;43.30;40.30
8313;DHT22;4194;43.408;24.626;2023-08-17T13:16:41;44.90;38.80
8313;DHT22;4194;43.408;24.626;2023-08-17T13:19:07;46.00;39.20
8313;DHT22;4194;43.408;24.626;2023-08-17T13:21:33;46.80;38.10
8313;DHT22;4194;43.408;24.626;2023-08-17T13:23:58;47.00;36.00
8313;DHT22;4194;43.408;24.626;2023-08-17T13:26:24;46.50;36.50
8313;DHT22;4194;43.408;24.626;2023-08-17T13:28:50;43.40;38.80
8313;DHT22;4194;43.408;24.626;2023-08-17T13:33:42;42.90;40.10
8313;DHT22;4194;43.408;24.626;2023-08-17T13:36:08;45.40;37.70
8313;DHT22;4194;43.408;24.626;2023-08-17T13:38:33;47.50;36.70
8313;DHT22;4194;43.408;24.626;2023-08-17T13:40:59;49.00;36.20
8313;DHT22;4194;43.408;24.626;2023-08-17T13:43:25;48.30;33.70
8313;DHT22;4194;43.408;24.626;2023-08-17T13:45:50;49.90;33.00
8313;DHT22;4194;43.408;24.626;2023-08-17T13:48:16;50.40;33.10
8313;DHT22;4194;43.408;24.626;2023-08-17T13:50:42;51.00;32.80
8313;DHT22;4194;43.408;24.626;2023-08-17T13:55:33;50.80;32.90
8313;DHT22;4194;43.408;24.626;2023-08-17T14:00:26;50.60;32.50
8313;DHT22;4194;43.408;24.626;2023-08-17T14:02:54;51.10;31.90
8313;DHT22;4194;43.408;24.626;2023-08-17T14:05:20;49.90;32.90
8313;DHT22;4194;43.408;24.626;2023-08-17T14:07:47;50.30;33.10
8313;DHT22;4194;43.408;24.626;2023-08-17T14:10:13;49.70;33.60
8313;DHT22;4194;43.408;24.626;2023-08-17T14:12:39;48.30;35.50
8313;DHT22;4194;43.408;24.626;2023-08-17T14:15:06;47.10;35.40
8313;DHT22;4194;43.408;24.626;2023-08-17T14:19:58;43.40;39.20
8313;DHT22;4194;43.408;24.626;2023-08-17T14:22:25;41.60;42.50
8313;DHT22;4194;43.408;24.626;2023-08-17T14:27:16;39.90;44.70
8313;DHT22;4194;43.408;24.626;2023-08-17T14:29:42;39.70;44.10
8313;DHT22;4194;43.408;24.626;2023-08-17T14:32:08;40.10;45.60
8313;DHT22;4194;43.408;24.626;2023-08-17T14:36:59;42.10;41.00
8313;DHT22;4194;43.408;24.626;2023-08-17T14:39:25;41.90;40.50
8313;DHT22;4194;43.408;24.626;2023-08-17T14:41:51;44.20;41.20
8313;DHT22;4194;43.408;24.626;2023-08-17T14:44:18;45.70;38.60
8313;DHT22;4194;43.408;24.626;2023-08-17T14:46:43;46.80;36.10
8313;DHT22;4194;43.408;24.626;2023-08-17T14:51:40;48.30;34.40
8313;DHT22;4194;43.408;24.626;2023-08-17T14:54:08;49.30;34.10
8313;DHT22;4194;43.408;24.626;2023-08-17T14:56:35;49.50;33.40
8313;DHT22;4194;43.408;24.626;2023-08-17T14:59:00;49.50;34.80
8313;DHT22;4194;43.408;24.626;2023-08-17T15:01:27;49.40;33.30
8313;DHT22;4194;43.408;24.626;2023-08-17T15:03:53;48.50;33.10
8313;DHT22;4194;43.408;24.626;2023-08-17T15:06:19;47.50;34.20
8313;DHT22;4194;43.408;24.626;2023-08-17T15:08:49;47.40;35.30
8313;DHT22;4194;43.408;24.626;2023-08-17T15:11:15;46.20;34.80
8313;DHT22;4194;43.408;24.626;2023-08-17T15:13:43;47.80;36.20
8313;DHT22;4194;43.408;24.626;2023-08-17T15:16:10;45.00;37.80
8313;DHT22;4194;43.408;24.626;2023-08-17T15:18:36;42.80;39.50
8313;DHT22;4194;43.408;24.626;2023-08-17T15:21:02;42.80;40.60
8313;DHT22;4194;43.408;24.626;2023-08-17T15:23:28;44.40;39.70
8313;DHT22;4194;43.408;24.626;2023-08-17T15:25:54;44.50;37.30
8313;DHT22;4194;43.408;24.626;2023-08-17T15:33:11;46.40;35.10
8313;DHT22;4194;43.408;24.626;2023-08-17T15:35:37;46.40;35.50
8313;DHT22;4194;43.408;24.626;2023-08-17T15:38:03;46.50;35.00
8313;DHT22;4194;43.408;24.626;2023-08-17T15:40:28;45.40;34.80
8313;DHT22;4194;43.408;24.626;2023-08-17T15:42:54;46.90;36.60
8313;DHT22;4194;43.408;24.626;2023-08-17T15:47:48;44.40;38.90
8313;DHT22;4194;43.408;24.626;2023-08-17T15:50:13;42.00;39.90
8313;DHT22;4194;43.408;24.626;2023-08-17T15:52:39;41.00;41.40
8313;DHT22;4194;43.408;24.626;2023-08-17T15:55:05;40.60;41.50
8313;DHT22;4194;43.408;24.626;2023-08-17T15:57:31;40.20;42.90
8313;DHT22;4194;43.408;24.626;2023-08-17T16:02:22;37.90;45.40
8313;DHT22;4194;43.408;24.626;2023-08-17T16:04:48;36.90;47.20
8313;DHT22;4194;43.408;24.626;2023-08-17T16:09:40;35.80;49.70
8313;DHT22;4194;43.408;24.626;2023-08-17T16:14:33;34.90;51.20
8313;DHT22;4194;43.408;24.626;2023-08-17T16:19:25;34.30;51.90
8313;DHT22;4194;43.408;24.626;2023-08-17T16:21:50;34.70;53.00
8313;DHT22;4194;43.408;24.626;2023-08-17T16:24:16;33.70;52.10
8313;DHT22;4194;43.408;24.626;2023-08-17T16:29:08;33.60;53.80
8313;DHT22;4194;43.408;24.626;2023-08-17T16:31:34;33.40;54.00
8313;DHT22;4194;43.408;24.626;2023-08-17T16:34:01;32.30;53.60
8313;DHT22;4194;43.408;24.626;2023-08-17T16:36:27;32.50;54.00
8313;DHT22;4194;43.408;24.626;2023-08-17T16:38:52;33.10;54.90
8313;DHT22;4194;43.408;24.626;2023-08-17T16:43:44;32.10;55.00
8313;DHT22;4194;43.408;24.626;2023-08-17T16:46:10;32.30;55.80
8313;DHT22;4194;43.408;24.626;2023-08-17T16:48:35;31.30;56.00
8313;DHT22;4194;43.408;24.626;2023-08-17T16:51:01;31.90;56.80
8313;DHT22;4194;43.408;24.626;2023-08-17T16:53:27;31.80;56.20
8313;DHT22;4194;43.408;24.626;2023-08-17T16:55:52;31.80;56.80
8313;DHT22;4194;43.408;24.626;2023-08-17T16:58:18;30.70;57.20
8313;DHT22;4194;43.408;24.626;2023-08-17T17:00:44;31.80;58.00
8313;DHT22;4194;43.408;24.626;2023-08-17T17:03:09;30.60;57.50
8313;DHT22;4194;43.408;24.626;2023-08-17T17:05:35;30.90;57.70
8313;DHT22;4194;43.408;24.626;2023-08-17T17:08:01;31.00;58.50
8313;DHT22;4194;43.408;24.626;2023-08-17T17:10:26;30.10;57.70
8313;DHT22;4194;43.408;24.626;2023-08-17T17:15:18;30.80;59.00
8313;DHT22;4194;43.408;24.626;2023-08-17T17:17:45;29.80;59.00
8313;DHT22;4194;43.408;24.626;2023-08-17T17:20:11;31.40;61.10
8313;DHT22;4194;43.408;24.626;2023-08-17T17:22:36;30.20;61.10
8313;DHT22;4194;43.408;24.626;2023-08-17T17:27:29;28.70;61.00
8313;DHT22;4194;43.408;24.626;2023-08-17T17:29:55;29.50;61.50
8313;DHT22;4194;43.408;24.626;2023-08-17T17:32:21;29.70;62.60
8313;DHT22;4194;43.408;24.626;2023-08-17T17:34:46;30.10;63.70
8313;DHT22;4194;43.408;24.626;2023-08-17T17:39:38;29.40;64.70
8313;DHT22;4194;43.408;24.626;2023-08-17T17:42:04;29.00;64.60
8313;DHT22;4194;43.408;24.626;2023-08-17T17:44:33;29.00;64.30
8313;DHT22;4194;43.408;24.626;2023-08-17T17:46:59;28.50;64.60
8313;DHT22;4194;43.408;24.626;2023-08-17T17:51:51;29.30;66.30
8313;DHT22;4194;43.408;24.626;2023-08-17T17:54:16;28.80;65.30
8313;DHT22;4194;43.408;24.626;2023-08-17T17:56:43;29.60;65.80
8313;DHT22;4194;43.408;24.626;2023-08-17T17:59:09;29.20;66.00
8313;DHT22;4194;43.408;24.626;2023-08-17T18:04:01;28.40;65.20
8313;DHT22;4194;43.408;24.626;2023-08-17T18:06:27;28.70;65.40
8313;DHT22;4194;43.408;24.626;2023-08-17T18:08:53;28.60;65.80
8313;DHT22;4194;43.408;24.626;2023-08-17T18:11:19;28.30;66.00
8313;DHT22;4194;43.408;24.626;2023-08-17T18:13:45;28.10;66.10
8313;DHT22;4194;43.408;24.626;2023-08-17T18:16:10;28.50;66.70
8313;DHT22;4194;43.408;24.626;2023-08-17T18:18:36;28.50;66.80
8313;DHT22;4194;43.408;24.626;2023-08-17T18:21:05;28.50;67.10
8313;DHT22;4194;43.408;24.626;2023-08-17T18:23:34;28.50;67.60
8313;DHT22;4194;43.408;24.626;2023-08-17T18:26:00;27.70;67.40
8313;DHT22;4194;43.408;24.626;2023-08-17T18:30:52;28.40;68.50
8313;DHT22;4194;43.408;24.626;2023-08-17T18:33:18;28.40;68.30
8313;DHT22;4194;43.408;24.626;2023-08-17T18:35:44;28.20;68.70
8313;DHT22;4194;43.408;24.626;2023-08-17T18:38:10;29.30;69.80
8313;DHT22;4194;43.408;24.626;2023-08-17T18:40:38;28.10;69.20
8313;DHT22;4194;43.408;24.626;2023-08-17T18:43:04;29.30;70.20
8313;DHT22;4194;43.408;24.626;2023-08-17T18:45:30;27.30;69.20
8313;DHT22;4194;43.408;24.626;2023-08-17T18:47:56;28.20;69.80
8313;DHT22;4194;43.408;24.626;2023-08-17T18:57:40;28.10;70.70
8313;DHT22;4194;43.408;24.626;2023-08-17T19:00:07;28.10;71.30
8313;DHT22;4194;43.408;24.626;2023-08-17T19:02:34;28.00;71.30
8313;DHT22;4194;43.408;24.626;2023-08-17T19:05:00;28.00;71.60
8313;DHT22;4194;43.408;24.626;2023-08-17T19:07:27;28.00;71.90
8313;DHT22;4194;43.408;24.626;2023-08-17T19:09:53;28.00;72.00
8313;DHT22;4194;43.408;24.626;2023-08-17T19:12:19;27.90;72.30
8313;DHT22;4194;43.408;24.626;2023-08-17T19:14:45;27.10;72.00
8313;DHT22;4194;43.408;24.626;2023-08-17T19:17:11;27.60;72.70
8313;DHT22;4194;43.408;24.626;2023-08-17T19:19:37;26.80;72.60
8313;DHT22;4194;43.408;24.626;2023-08-17T19:22:03;27.80;72.90
8313;DHT22;4194;43.408;24.626;2023-08-17T19:24:29;27.80;73.40
8313;DHT22;4194;43.408;24.626;2023-08-17T19:26:55;27.70;73.60
8313;DHT22;4194;43.408;24.626;2023-08-17T19:29:20;27.50;73.70
8313;DHT22;4194;43.408;24.626;2023-08-17T19:31:46;28.10;74.20
8313;DHT22;4194;43.408;24.626;2023-08-17T19:34:12;27.90;74.30
8313;DHT22;4194;43.408;24.626;2023-08-17T19:36:37;27.50;74.40
8313;DHT22;4194;43.408;24.626;2023-08-17T19:39:06;27.60;74.60
8313;DHT22;4194;43.408;24.626;2023-08-17T19:43:59;27.50;75.20
8313;DHT22;4194;43.408;24.626;2023-08-17T19:46:25;27.60;75.10
8313;DHT22;4194;43.408;24.626;2023-08-17T19:51:18;27.80;75.90
8313;DHT22;4194;43.408;24.626;2023-08-17T19:53:45;27.70;76.00
8313;DHT22;4194;43.408;24.626;2023-08-17T19:58:37;27.30;76.60
8313;DHT22;4194;43.408;24.626;2023-08-17T20:01:06;27.10;76.60
8313;DHT22;4194;43.408;24.626;2023-08-17T20:03:35;27.20;76.60
8313;DHT22;4194;43.408;24.626;2023-08-17T20:06:01;27.50;77.50
8313;DHT22;4194;43.408;24.626;2023-08-17T20:08:28;27.20;77.10
8313;DHT22;4194;43.408;24.626;2023-08-17T20:10:54;26.90;76.90
8313;DHT22;4194;43.408;24.626;2023-08-17T20:13:19;26.70;77.20
8313;DHT22;4194;43.408;24.626;2023-08-17T20:15:45;27.10;78.00
8313;DHT22;4194;43.408;24.626;2023-08-17T20:18:11;27.00;78.40
8313;DHT22;4194;43.408;24.626;2023-08-17T20:20:51;27.00;79.20
8313;DHT22;4194;43.408;24.626;2023-08-17T20:23:19;26.90;79.00
8313;DHT22;4194;43.408;24.626;2023-08-17T20:28:12;26.90;79.40
8313;DHT22;4194;43.408;24.626;2023-08-17T20:30:41;26.80;79.90
8313;DHT22;4194;43.408;24.626;2023-08-17T20:33:08;26.50;80.10
8313;DHT22;4194;43.408;24.626;2023-08-17T20:35:38;27.50;80.70
8313;DHT22;4194;43.408;24.626;2023-08-17T20:38:06;26.70;80.50
8313;DHT22;4194;43.408;24.626;2023-08-17T20:40:31;27.40;81.40
8313;DHT22;4194;43.408;24.626;2023-08-17T20:42:57;26.70;81.40
8313;DHT22;4194;43.408;24.626;2023-08-17T20:45:23;27.40;82.10
8313;DHT22;4194;43.408;24.626;2023-08-17T20:47:49;27.50;82.50
8313;DHT22;4194;43.408;24.626;2023-08-17T20:50:14;25.40;81.10
8313;DHT22;4194;43.408;24.626;2023-08-17T20:52:40;26.50;82.20
8313;DHT22;4194;43.408;24.626;2023-08-17T20:55:06;26.50;82.30
8313;DHT22;4194;43.408;24.626;2023-08-17T20:57:32;26.70;82.80
8313;DHT22;4194;43.408;24.626;2023-08-17T20:59:58;26.40;82.60
8313;DHT22;4194;43.408;24.626;2023-08-17T21:02:24;26.40;82.80
8313;DHT22;4194;43.408;24.626;2023-08-17T21:04:49;26.40;83.10
8313;DHT22;4194;43.408;24.626;2023-08-17T21:07:15;26.40;83.20
8313;DHT22;4194;43.408;24.626;2023-08-17T21:09:41;26.50;83.30
8313;DHT22;4194;43.408;24.626;2023-08-17T21:12:07;26.30;83.50
8313;DHT22;4194;43.408;24.626;2023-08-17T21:14:32;26.80;84.00
8313;DHT22;4194;43.408;24.626;2023-08-17T21:16:58;25.50;83.30
8313;DHT22;4194;43.408;24.626;2023-08-17T21:24:16;26.20;83.70
8313;DHT22;4194;43.408;24.626;2023-08-17T21:31:33;28.50;85.20
8313;DHT22;4194;43.408;24.626;2023-08-17T21:36:25;26.30;84.00
8313;DHT22;4194;43.408;24.626;2023-08-17T21:38:51;27.10;84.30
8313;DHT22;4194;43.408;24.626;2023-08-17T21:43:43;26.70;84.30
8313;DHT22;4194;43.408;24.626;2023-08-17T21:48:35;26.60;84.60
8313;DHT22;4194;43.408;24.626;2023-08-17T21:51:02;27.00;85.00
8313;DHT22;4194;43.408;24.626;2023-08-17T21:53:28;25.30;83.70
8313;DHT22;4194;43.408;24.626;2023-08-17T21:55:53;26.40;84.80
8313;DHT22;4194;43.408;24.626;2023-08-17T21:58:19;26.10;84.50
8313;DHT22;4194;43.408;24.626;2023-08-17T22:00:46;24.90;83.90
8313;DHT22;4194;43.408;24.626;2023-08-17T22:05:38;25.40;84.70
8313;DHT22;4194;43.408;24.626;2023-08-17T22:08:05;25.90;85.10
8313;DHT22;4194;43.408;24.626;2023-08-17T22:10:31;25.50;84.90
8313;DHT22;4194;43.408;24.626;2023-08-17T22:12:57;27.00;86.00
8313;DHT22;4194;43.408;24.626;2023-08-17T22:15:23;25.10;84.70
8313;DHT22;4194;43.408;24.626;2023-08-17T22:17:52;25.00;85.00
8313;DHT22;4194;43.408;24.626;2023-08-17T22:20:17;25.60;85.90
8313;DHT22;4194;43.408;24.626;2023-08-17T22:22:44;24.80;85.60
8313;DHT22;4194;43.408;24.626;2023-08-17T22:25:10;25.00;85.80
8313;DHT22;4194;43.408;24.626;2023-08-17T22:27:37;24.90;86.00
8313;DHT22;4194;43.408;24.626;2023-08-17T22:30:03;25.40;86.60
8313;DHT22;4194;43.408;24.626;2023-08-17T22:32:28;25.60;87.00